Girolata — FPOD — position and weather

sailwx.info

Track history (hours):
 
Tides and Currents Weather Stations Pressure Air Temp Water Temp Dewpoint Dewpoint Depression Visibility Wind Speed Wind Dir Waves Ship Positions

Girolata

Last reported at 2020-Jan-21 04:00 UTC. Time now 2020-Jan-22 00:23 UTC.
Position N 38°19' E 013°34'.

Length 177 m; beam 27 m.

Type: Ship. MMSI: 226245000.

Date/timePositionNaut miles runAvg speedWind from/ knotsBaromVisibWave heightAir tempDewpointWater temp
2020-Jan-21 04:00N 38°19' E 013°34'1122.9
2020-Jan-21 03:30N 38°08' E 013°40'1019.6
2020-Jan-21 03:01N 37°59' E 013°44'1 0.7
2020-Jan-21 01:27N 37°59' E 013°42'0 0.0
2020-Jan-21 01:00N 37°59' E 013°42'0 0.0
2020-Jan-20 21:00N 37°59' E 013°42'0 0.0
2020-Jan-20 18:27N 37°59' E 013°42'0 0.0
2020-Jan-20 17:00N 37°59' E 013°42'0 0.0
2020-Jan-20 15:00N 37°59' E 013°42'0 0.0
2020-Jan-20 13:30N 37°59' E 013°42'0 0.0
2020-Jan-20 11:57N 37°59' E 013°42'0 0.0
2020-Jan-20 10:54N 37°59' E 013°42'2 1.3
2020-Jan-20 09:30N 38°01' E 013°43'919.1
2020-Jan-20 09:00N 38°10' E 013°39'3517.6
2020-Jan-20 07:00N 38°43' E 013°23'2 0.1
2020-Jan-19 04:30N 38°45' E 013°21'1919.6
2020-Jan-19 03:30N 38°27' E 013°31'2911.5
2020-Jan-19 00:58N 37°59' E 013°42'0 0.0
2020-Jan-19 00:28N 37°59' E 013°42'0 0.0
2020-Jan-18 22:00N 37°59' E 013°42'2 3.2
2020-Jan-18 21:30N 38°00' E 013°44'1918.7
2020-Jan-18 20:30N 38°19' E 013°47'1817.9
2020-Jan-18 19:30N 38°37' E 013°50'8520.8
2020-Jan-18 15:26N 40°01' E 014°02'1021.2
2020-Jan-18 14:57N 40°11' E 014°03'3121.2
2020-Jan-18 13:30N 40°41' E 014°12'10 3.2
2020-Jan-18 10:25N 40°50' E 014°16'0 0.0
2020-Jan-18 09:55N 40°50' E 014°16'3811.1
2020-Jan-18 06:27N 40°13' E 014°05'919.2
2020-Jan-18 06:01N 40°04' E 014°04'8419.9
2020-Jan-18 01:46N 38°40' E 013°51'1722.0
2020-Jan-18 01:00N 38°24' E 013°48'2222.0
2020-Jan-18 00:01N 38°02' E 013°45'26 6.4
2020-Jan-17 20:00N 38°26' E 013°31'22 0.6
2020-Jan-16 04:14N 38°46' E 013°21'521.3
2020-Jan-16 04:01N 38°42' E 013°23'2221.5
2020-Jan-16 03:01N 38°22' E 013°33'1122.0
2020-Jan-16 02:31N 38°12' E 013°38'1312.4
2020-Jan-16 01:30N 37°59' E 013°42'0 0.0
2020-Jan-15 23:30N 37°59' E 013°42'0 0.0
2020-Jan-15 22:30N 37°59' E 013°42'3012.0
2020-Jan-15 20:00N 38°28' E 013°30'918.8
2020-Jan-15 19:30N 38°36' E 013°26'39 0.9
2020-Jan-14 00:59N 37°59' E 013°42'0 0.0
2020-Jan-13 20:23N 37°59' E 013°42'0 0.0
2020-Jan-13 17:38N 37°59' E 013°42'0 0.0
2020-Jan-13 16:59N 37°59' E 013°42'0 0.0
2020-Jan-13 11:59N 37°59' E 013°42'0 0.0
2020-Jan-13 10:59N 37°59' E 013°42'4013.5
2020-Jan-13 08:00N 38°37' E 013°25'0 0.0
2020-Jan-12 07:01N 38°38' E 013°25'4110.2
2020-Jan-12 03:00N 37°59' E 013°42'0 0.0
2020-Jan-12 01:00N 37°59' E 013°42'0 0.0
2020-Jan-12 00:00N 37°59' E 013°42'0 0.0
2020-Jan-11 23:00N 37°59' E 013°42'0 0.0
2020-Jan-11 22:30N 37°59' E 013°42'2 1.9
2020-Jan-11 21:30N 38°01' E 013°44'918.3
2020-Jan-11 21:00N 38°10' E 013°45'11421.2
2020-Jan-11 15:38N 40°03' E 014°01'4910.4
2020-Jan-11 10:56N 40°50' E 014°16'  
Track history (hours):
 
Tides and Currents Weather Stations Pressure Air Temp Water Temp Dewpoint Dewpoint Depression Visibility Wind Speed Wind Dir Waves Ship Positions

Girolata

Last reported at 2020-Jan-21 04:00 UTC. Time now 2020-Jan-22 00:23 UTC.
Position N 38°19' E 013°34'.

Length 177 m; beam 27 m.

Type: Ship. MMSI: 226245000.

Date/timePositionNaut miles runAvg speedWind from/ knotsBaromVisibWave heightAir tempDewpointWater temp
2020-Jan-21 04:00N 38°19' E 013°34'1122.9
2020-Jan-21 03:30N 38°08' E 013°40'1019.6
2020-Jan-21 03:01N 37°59' E 013°44'1 0.7
2020-Jan-21 01:27N 37°59' E 013°42'0 0.0
2020-Jan-21 01:00N 37°59' E 013°42'0 0.0
2020-Jan-20 21:00N 37°59' E 013°42'0 0.0
2020-Jan-20 18:27N 37°59' E 013°42'0 0.0
2020-Jan-20 17:00N 37°59' E 013°42'0 0.0
2020-Jan-20 15:00N 37°59' E 013°42'0 0.0
2020-Jan-20 13:30N 37°59' E 013°42'0 0.0
2020-Jan-20 11:57N 37°59' E 013°42'0 0.0
2020-Jan-20 10:54N 37°59' E 013°42'2 1.3
2020-Jan-20 09:30N 38°01' E 013°43'919.1
2020-Jan-20 09:00N 38°10' E 013°39'3517.6
2020-Jan-20 07:00N 38°43' E 013°23'2 0.1
2020-Jan-19 04:30N 38°45' E 013°21'1919.6
2020-Jan-19 03:30N 38°27' E 013°31'2911.5
2020-Jan-19 00:58N 37°59' E 013°42'0 0.0
2020-Jan-19 00:28N 37°59' E 013°42'0 0.0
2020-Jan-18 22:00N 37°59' E 013°42'2 3.2
2020-Jan-18 21:30N 38°00' E 013°44'1918.7
2020-Jan-18 20:30N 38°19' E 013°47'1817.9
2020-Jan-18 19:30N 38°37' E 013°50'8520.8
2020-Jan-18 15:26N 40°01' E 014°02'1021.2
2020-Jan-18 14:57N 40°11' E 014°03'3121.2
2020-Jan-18 13:30N 40°41' E 014°12'10 3.2
2020-Jan-18 10:25N 40°50' E 014°16'0 0.0
2020-Jan-18 09:55N 40°50' E 014°16'3811.1
2020-Jan-18 06:27N 40°13' E 014°05'919.2
2020-Jan-18 06:01N 40°04' E 014°04'8419.9
2020-Jan-18 01:46N 38°40' E 013°51'1722.0
2020-Jan-18 01:00N 38°24' E 013°48'2222.0
2020-Jan-18 00:01N 38°02' E 013°45'26 6.4
2020-Jan-17 20:00N 38°26' E 013°31'22 0.6
2020-Jan-16 04:14N 38°46' E 013°21'521.3
2020-Jan-16 04:01N 38°42' E 013°23'2221.5
2020-Jan-16 03:01N 38°22' E 013°33'1122.0
2020-Jan-16 02:31N 38°12' E 013°38'1312.4
2020-Jan-16 01:30N 37°59' E 013°42'0 0.0
2020-Jan-15 23:30N 37°59' E 013°42'0 0.0
2020-Jan-15 22:30N 37°59' E 013°42'3012.0
2020-Jan-15 20:00N 38°28' E 013°30'918.8
2020-Jan-15 19:30N 38°36' E 013°26'39 0.9
2020-Jan-14 00:59N 37°59' E 013°42'0 0.0
2020-Jan-13 20:23N 37°59' E 013°42'0 0.0
2020-Jan-13 17:38N 37°59' E 013°42'0 0.0
2020-Jan-13 16:59N 37°59' E 013°42'0 0.0
2020-Jan-13 11:59N 37°59' E 013°42'0 0.0
2020-Jan-13 10:59N 37°59' E 013°42'4013.5
2020-Jan-13 08:00N 38°37' E 013°25'0 0.0
2020-Jan-12 07:01N 38°38' E 013°25'4110.2
2020-Jan-12 03:00N 37°59' E 013°42'0 0.0
2020-Jan-12 01:00N 37°59' E 013°42'0 0.0
2020-Jan-12 00:00N 37°59' E 013°42'0 0.0
2020-Jan-11 23:00N 37°59' E 013°42'0 0.0
2020-Jan-11 22:30N 37°59' E 013°42'2 1.9
2020-Jan-11 21:30N 38°01' E 013°44'918.3
2020-Jan-11 21:00N 38°10' E 013°45'11421.2
2020-Jan-11 15:38N 40°03' E 014°01'4910.4
2020-Jan-11 10:56N 40°50' E 014°16'  

Dump ship's entire track history